Custer City, Oklahoma
Current Conditions -  °F | °C
As of 9:15 AM on Thursday 23 Oct 2014 (Local Time) from KCLK Reporting Station
Haze Haze  
Wind Chill: 61°   Ceiling: Unl
Heat Index: 61°   Visibility: 5mi
Dew Point: 59°   Wind: 6mph
Humidity: 94%   Direction: 180°S
Pressure: 30.13"   Gusts: NA
Location:  35.67°N, 98.88°W
Report Text: KCLK 231415Z AUTO 18005KT 5SM BR CLR 16/15 A3013 RMK AO2
Loading
Personal Weather Stations






























Interactive Weather Map
Tropical Storm Tracking
New forecast layout! Learn more

10-Day Weather Forecast

Advertisements
Track Severe Weather on mobile